EDT,Max TemperatureF,Mean TemperatureF,Min TemperatureF,Max Dew PointF,MeanDew PointF,Min DewpointF,Max Humidity, Mean Humidity, Min Humidity, Max Sea Level PressureIn, Mean Sea Level PressureIn, Min Sea Level PressureIn, Max VisibilityMiles, Mean VisibilityMiles, Min VisibilityMiles, Max Wind SpeedMPH, Mean Wind SpeedMPH, Max Gust SpeedMPH,PrecipitationIn, CloudCover, Events, WindDirDegrees
2012-10-1,71,60,49,50,47,45,86,64,41,29.96,29.87,29.80,10,10,10,21,7,26,0.00,2,,256
2012-10-2,72,65,57,67,58,50,100,75,49,30.03,29.99,29.96,10,8,0,14,4,16,0.15,8,Rain,103
2012-10-3,75,70,65,69,66,64,100,91,82,30.11,30.03,29.96,10,2,0,9,4,10,T,8,Fog-Rain,54
2012-10-4,72,69,66,68,66,64,100,94,87,30.13,30.08,30.03,3,1,0,9,3,10,0.05,8,Fog-Rain-Thunderstorm,175
2012-10-5,79,71,62,66,61,51,100,70,39,30.05,30.01,29.93,10,6,0,12,5,15,0.00,4,Fog,290
2012-10-6,77,65,53,64,57,42,93,75,57,29.97,29.86,29.76,10,9,5,26,10,33,0.00,4,,241
2012-10-7,56,50,44,47,43,37,86,70,54,30.10,30.05,29.98,10,9,3,17,5,23,0.10,6,Rain,343
2012-10-8,57,50,42,46,43,40,96,76,55,30.27,30.20,30.09,10,10,10,10,4,14,0.00,5,,348
2012-10-9,59,55,51,54,51,43,93,80,66,30.22,30.14,30.07,10,8,2,17,10,23,0.01,8,Rain,53
2012-10-10,72,63,53,61,53,44,93,71,49,30.07,29.90,29.78,10,8,2,21,10,29,0.19,6,Rain,28
2012-10-11,60,53,46,38,35,32,66,51,36,30.18,30.11,29.94,10,10,10,20,9,30,0.00,1,,277
2012-10-12,60,52,43,43,37,24,82,61,39,30.36,30.14,30.05,10,10,10,24,10,29,T,3,,301
2012-10-13,55,44,32,41,27,22,75,54,33,30.52,30.43,30.30,10,10,10,15,6,21,0.00,2,,218
2012-10-14,68,62,55,57,52,44,78,64,49,30.27,30.12,29.97,10,10,10,23,14,29,0.00,5,,216
2012-10-15,71,65,59,63,60,57,93,83,73,29.92,29.74,29.63,10,10,10,21,13,29,0.03,7,Rain,205
2012-10-16,61,52,43,57,42,36,80,60,39,29.89,29.74,29.61,10,10,10,23,11,31,T,3,Rain,306
2012-10-17,60,49,38,45,40,35,86,63,39,30.01,29.96,29.91,10,10,10,12,4,14,0.00,5,,293
2012-10-18,65,54,42,55,47,40,96,76,56,30.05,30.01,29.98,10,10,8,16,8,21,T,4,,128
2012-10-19,67,64,61,64,62,56,93,83,73,29.95,29.83,29.69,10,4,0,25,13,32,0.76,8,Fog-Rain,147
2012-10-20,72,61,49,63,57,38,100,74,48,29.81,29.69,29.66,10,7,0,18,8,23,0.00,5,Fog,204
2012-10-21,65,55,44,43,40,37,82,60,37,29.99,29.91,29.83,10,10,10,18,8,25,0.00,1,,276
2012-10-22,66,56,46,44,41,39,82,61,40,30.06,30.01,29.98,10,10,10,17,7,23,0.00,1,,283
2012-10-23,69,57,45,55,48,43,93,66,39,30.12,30.07,30.05,10,10,8,9,1,15,0.05,6,Rain,322
2012-10-24,59,57,54,55,52,49,93,85,77,30.20,30.13,30.09,10,8,2,12,5,14,0.03,8,Rain,54
2012-10-25,62,58,53,50,49,46,83,72,60,30.27,30.23,30.20,10,10,10,10,4,14,T,8,Rain,73
2012-10-26,68,61,54,56,54,52,93,76,59,30.22,30.17,30.12,10,10,10,10,3,13,0.00,6,,134
2012-10-27,66,62,57,55,51,42,84,70,56,30.10,29.99,29.90,10,10,10,14,6,20,0.00,7,,72
2012-10-28,60,57,54,50,48,39,77,64,51,29.89,29.78,29.62,10,10,9,33,18,41,T,8,Rain,48
2012-10-29,65,59,53,61,54,49,97,82,67,29.58,29.02,28.56,10,4,1,56,33,90,0.70,8,Rain,60
2012-10-30,61,57,52,50,47,45,77,67,57,29.48,29.37,29.11,10,10,10,33,17,45,0.01,7,Rain,167
2012-10-31,53,50,46,46,40,35,86,70,54,29.58,29.52,29.46,10,10,10,17,7,23,T,8,Rain,248